createdAt,value
2017-12-21T00:00:57.296Z,4.77
2017-12-21T00:02:07.169Z,4.8
2017-12-21T00:03:17.096Z,4.95
2017-12-21T00:04:26.949Z,5
2017-12-21T00:05:36.498Z,4.88
2017-12-21T00:06:46.624Z,4.93
2017-12-21T00:07:56.736Z,4.93
2017-12-21T00:09:06.849Z,4.88
2017-12-21T00:10:16.664Z,4.92
2017-12-21T00:11:26.902Z,4.95
2017-12-21T00:12:36.801Z,4.98
2017-12-21T00:13:46.305Z,4.93
2017-12-21T00:14:56.467Z,4.92
2017-12-21T00:16:06.611Z,4.96
2017-12-21T00:17:16.463Z,4.93
2017-12-21T00:18:26.563Z,4.95
2017-12-21T00:19:36.711Z,4.96
2017-12-21T00:20:46.812Z,5.03
2017-12-21T00:21:57.005Z,4.98
2017-12-21T00:23:06.861Z,5
2017-12-21T00:24:16.960Z,4.98
2017-12-21T00:25:26.846Z,5.07
2017-12-21T00:26:36.731Z,5.11
2017-12-21T00:27:46.600Z,5.1
2017-12-21T00:28:56.707Z,5.1
2017-12-21T00:30:06.810Z,5.07
2017-12-21T00:31:16.680Z,5.14
2017-12-21T00:32:26.528Z,5.13
2017-12-21T00:33:36.676Z,5.08
2017-12-21T00:34:46.825Z,5.1
2017-12-21T00:35:56.938Z,5.13
2017-12-21T00:37:07.099Z,5.08
2017-12-21T00:38:17.270Z,5.14
2017-12-21T00:39:27.130Z,5.11
2017-12-21T00:40:37.237Z,5.06
2017-12-21T00:41:47.370Z,5.13
2017-12-21T00:42:57.523Z,5.04
2017-12-21T00:44:07.425Z,5.06
2017-12-21T00:45:17.547Z,5.07
2017-12-21T00:46:27.303Z,5.08
2017-12-21T00:47:37.476Z,5.07
2017-12-21T00:48:47.093Z,5.06
2017-12-21T00:49:57.202Z,5.07
2017-12-21T00:51:07.065Z,5.13
2017-12-21T00:52:17.203Z,5.14
2017-12-21T00:53:27.323Z,5.11
2017-12-21T00:54:37.431Z,5.16
2017-12-21T00:55:47.577Z,5.17
2017-12-21T00:56:57.728Z,5.13
2017-12-21T00:58:07.863Z,5.21
2017-12-21T00:59:18.027Z,5.18
2017-12-21T01:00:28.140Z,5.16
2017-12-21T01:01:38.329Z,5.18
2017-12-21T01:02:48.472Z,5.22
2017-12-21T01:03:58.639Z,5.18
2017-12-21T01:05:08.760Z,5.21
2017-12-21T01:06:18.872Z,5.29
2017-12-21T01:07:28.977Z,5.31
2017-12-21T01:08:39.112Z,5.18
2017-12-21T01:09:49.378Z,5.24
2017-12-21T01:10:59.511Z,5.17
2017-12-21T01:12:09.678Z,5.16
2017-12-21T01:13:19.537Z,5.26
2017-12-21T01:14:29.646Z,5.22
2017-12-21T01:15:39.748Z,5.24
2017-12-21T01:16:49.848Z,5.17
2017-12-21T01:17:59.951Z,5.24
2017-12-21T01:19:10.076Z,5.21
2017-12-21T01:20:20.203Z,5.25
2017-12-21T01:21:30.055Z,5.25
2017-12-21T01:22:39.915Z,5.18
2017-12-21T01:23:50.026Z,5.26
2017-12-21T01:25:00.248Z,5.21
2017-12-21T01:26:10.073Z,5.28
2017-12-21T01:27:20.269Z,5.32
2017-12-21T01:28:30.405Z,5.22
2017-12-21T01:29:40.610Z,5.31
2017-12-21T01:30:50.538Z,5.32
2017-12-21T01:32:00.648Z,5.28
2017-12-21T01:33:10.501Z,5.29
2017-12-21T01:34:20.225Z,5.28
2017-12-21T01:35:30.332Z,5.28
2017-12-21T01:36:40.585Z,5.35
2017-12-21T01:37:50.734Z,5.25
2017-12-21T01:39:01.056Z,5.31
2017-12-21T01:40:10.995Z,5.28
2017-12-21T01:41:20.851Z,5.33
2017-12-21T01:42:30.980Z,5.33
2017-12-21T01:43:41.139Z,5.21
2017-12-21T01:44:51.250Z,5.26
2017-12-21T01:46:00.974Z,5.35
2017-12-21T01:47:10.887Z,5.33
2017-12-21T01:48:20.998Z,5.26
2017-12-21T01:49:31.105Z,5.29
2017-12-21T01:50:41.272Z,5.29
2017-12-21T01:51:51.448Z,5.29
2017-12-21T01:53:01.654Z,5.32
2017-12-21T01:54:11.499Z,5.32
2017-12-21T01:55:21.614Z,5.29
2017-12-21T01:56:31.760Z,5.35
2017-12-21T01:57:41.626Z,5.38
2017-12-21T01:58:51.516Z,5.35
2017-12-21T02:00:01.660Z,5.21
2017-12-21T02:01:11.774Z,5.35
2017-12-21T02:02:21.937Z,5.31
2017-12-21T02:03:32.134Z,5.29
2017-12-21T02:04:42.295Z,5.29
2017-12-21T02:05:52.499Z,5.33
2017-12-21T02:07:02.614Z,5.29
2017-12-21T02:08:12.391Z,5.32
2017-12-21T02:09:22.524Z,5.32
2017-12-21T02:10:32.514Z,5.29
2017-12-21T02:11:42.706Z,5.28
2017-12-21T02:12:52.855Z,5.29
2017-12-21T02:14:02.970Z,5.36
2017-12-21T02:15:13.067Z,5.25
2017-12-21T02:16:23.218Z,5.31
2017-12-21T02:17:33.407Z,5.41
2017-12-21T02:18:43.362Z,5.44
2017-12-21T02:19:53.456Z,5.35
2017-12-21T02:21:03.192Z,5.33
2017-12-21T02:22:13.325Z,5.44
2017-12-21T02:23:23.466Z,5.38
2017-12-21T02:24:33.305Z,5.46
2017-12-21T02:25:43.200Z,5.4
2017-12-21T02:26:53.331Z,5.41
2017-12-21T02:28:03.460Z,5.38
2017-12-21T02:29:13.672Z,5.44
2017-12-21T02:30:23.858Z,5.41
2017-12-21T02:31:34.008Z,5.36
2017-12-21T02:32:43.658Z,5.38
2017-12-21T02:33:53.759Z,5.41
2017-12-21T02:35:03.884Z,5.43
2017-12-21T02:36:14.069Z,5.41
2017-12-21T02:37:24.214Z,5.44
2017-12-21T02:38:34.382Z,5.43
2017-12-21T02:39:44.524Z,5.44
2017-12-21T02:40:54.438Z,5.49
2017-12-21T02:42:04.578Z,5.41
2017-12-21T02:43:14.182Z,5.44
2017-12-21T02:44:24.055Z,5.47
2017-12-21T02:45:34.208Z,5.47
2017-12-21T02:46:44.336Z,5.46
2017-12-21T02:47:55.425Z,5.43
2017-12-21T02:49:05.285Z,5.46
2017-12-21T02:50:15.153Z,5.49
2017-12-21T02:51:25.376Z,5.44
2017-12-21T02:52:35.593Z,5.54
2017-12-21T02:53:45.729Z,5.49
2017-12-21T02:54:55.548Z,5.47
2017-12-21T02:56:05.486Z,5.54
2017-12-21T02:57:15.397Z,5.43
2017-12-21T02:58:25.511Z,5.41
2017-12-21T02:59:35.623Z,5.44
2017-12-21T03:00:45.747Z,5.53
2017-12-21T03:01:55.868Z,5.49
2017-12-21T03:03:05.969Z,5.41
2017-12-21T03:04:15.820Z,5.46
2017-12-21T03:05:25.679Z,5.49
2017-12-21T03:06:35.922Z,5.41
2017-12-21T03:07:45.754Z,5.43
2017-12-21T03:08:55.870Z,5.36
2017-12-21T03:10:05.978Z,5.44
2017-12-21T03:11:16.365Z,5.4
2017-12-21T03:12:26.497Z,5.44
2017-12-21T03:13:36.360Z,5.38
2017-12-21T03:14:46.213Z,5.38
2017-12-21T03:15:56.302Z,5.43
2017-12-21T03:17:06.412Z,5.44
2017-12-21T03:18:16.643Z,5.4
2017-12-21T03:19:26.132Z,5.43
2017-12-21T03:20:36.236Z,5.38
2017-12-21T03:21:45.859Z,5.44
2017-12-21T03:22:56.101Z,5.38
2017-12-21T03:24:05.950Z,5.4
2017-12-21T03:25:15.848Z,5.38
2017-12-21T03:26:25.956Z,5.41
2017-12-21T03:27:36.100Z,5.43
2017-12-21T03:28:46.224Z,5.43
2017-12-21T03:29:56.387Z,5.43
2017-12-21T03:31:06.671Z,5.38
2017-12-21T03:32:16.933Z,5.4
2017-12-21T03:33:26.856Z,5.41
2017-12-21T03:34:36.947Z,5.4
2017-12-21T03:35:47.076Z,5.4
2017-12-21T03:36:57.181Z,5.38
2017-12-21T03:38:07.285Z,5.46
2017-12-21T03:39:17.429Z,5.43
2017-12-21T03:40:27.285Z,5.29
2017-12-21T03:41:37.424Z,5.43
2017-12-21T03:42:47.523Z,5.36
2017-12-21T03:43:57.630Z,5.41
2017-12-21T03:45:07.814Z,5.29
2017-12-21T03:46:17.932Z,5.4
2017-12-21T03:47:28.045Z,5.33
2017-12-21T03:48:38.022Z,5.29
2017-12-21T03:49:48.233Z,5.33
2017-12-21T03:50:58.090Z,5.35
2017-12-21T03:52:08.199Z,5.32
2017-12-21T03:53:18.450Z,5.33
2017-12-21T03:54:28.632Z,5.33
2017-12-21T03:55:38.759Z,5.29
2017-12-21T03:56:48.843Z,5.33
2017-12-21T03:57:58.948Z,5.31
2017-12-21T03:59:09.094Z,5.31
2017-12-21T04:00:19.199Z,5.35
2017-12-21T04:01:28.824Z,5.26
2017-12-21T04:02:38.932Z,5.26
2017-12-21T04:03:49.036Z,5.33
2017-12-21T04:04:58.908Z,5.32
2017-12-21T04:06:09.056Z,5.35
2017-12-21T04:07:19.242Z,5.35
2017-12-21T04:08:29.345Z,5.32
2017-12-21T04:09:39.444Z,5.4
2017-12-21T04:10:49.765Z,5.46
2017-12-21T04:11:59.889Z,5.41
2017-12-21T04:13:10.007Z,5.46
2017-12-21T04:14:20.126Z,5.41
2017-12-21T04:15:29.987Z,5.4
2017-12-21T04:16:39.850Z,5.29
2017-12-21T04:17:49.984Z,5.33
2017-12-21T04:18:59.921Z,5.31
2017-12-21T04:20:10.108Z,5.33
2017-12-21T04:21:19.880Z,5.28
2017-12-21T04:22:29.998Z,5.33
2017-12-21T04:23:39.622Z,5.35
2017-12-21T04:24:49.490Z,5.4
2017-12-21T04:25:59.605Z,5.38
2017-12-21T04:27:09.564Z,5.38
2017-12-21T04:28:19.699Z,5.38
2017-12-21T04:29:29.541Z,5.38
2017-12-21T04:30:39.379Z,5.44
2017-12-21T04:31:49.502Z,5.4
2017-12-21T04:32:59.639Z,5.41
2017-12-21T04:34:09.939Z,5.4
2017-12-21T04:35:20.052Z,5.46
2017-12-21T04:36:30.209Z,5.49
2017-12-21T04:37:40.318Z,5.4
2017-12-21T04:38:50.408Z,5.46
2017-12-21T04:40:00.582Z,5.43
2017-12-21T04:41:10.706Z,5.38
2017-12-21T04:42:20.573Z,5.41
2017-12-21T04:43:30.409Z,5.41
2017-12-21T04:44:40.167Z,5.41
2017-12-21T04:45:50.111Z,5.41
2017-12-21T04:46:59.626Z,5.44
2017-12-21T04:48:09.730Z,5.41
2017-12-21T04:49:19.589Z,5.47
2017-12-21T04:50:29.194Z,5.43
2017-12-21T04:51:39.319Z,5.47
2017-12-21T04:52:49.484Z,5.44
2017-12-21T04:53:59.636Z,5.44
2017-12-21T04:55:09.755Z,5.5
2017-12-21T04:56:19.868Z,5.49
2017-12-21T04:57:30.023Z,5.51
2017-12-21T04:58:39.884Z,5.49
2017-12-21T04:59:49.995Z,5.53
2017-12-21T05:01:00.143Z,5.5
2017-12-21T05:02:10.332Z,5.56
2017-12-21T05:03:20.464Z,5.58
2017-12-21T05:04:30.560Z,5.59
2017-12-21T05:05:41.410Z,5.58
2017-12-21T05:06:51.531Z,5.54
2017-12-21T05:08:01.624Z,5.59
2017-12-21T05:09:11.611Z,5.51
2017-12-21T05:10:21.730Z,5.56
2017-12-21T05:11:31.584Z,5.59
2017-12-21T05:12:41.464Z,5.58
2017-12-21T05:13:51.089Z,5.68
2017-12-21T05:15:01.211Z,5.65
2017-12-21T05:16:11.413Z,5.68
2017-12-21T05:17:21.536Z,5.61
2017-12-21T05:18:31.643Z,5.68
2017-12-21T05:19:41.741Z,5.67
2017-12-21T05:20:51.599Z,5.69
2017-12-21T05:22:01.701Z,5.56
2017-12-21T05:23:11.583Z,5.65
2017-12-21T05:24:21.712Z,5.67
2017-12-21T05:25:31.544Z,5.69
2017-12-21T05:26:41.435Z,5.67
2017-12-21T05:27:51.604Z,5.71
2017-12-21T05:29:01.715Z,5.67
2017-12-21T05:30:11.819Z,5.69
2017-12-21T05:31:21.369Z,5.69
2017-12-21T05:32:31.470Z,5.69
2017-12-21T05:33:41.575Z,5.72
2017-12-21T05:34:51.435Z,5.68
2017-12-21T05:36:00.895Z,5.67
2017-12-21T05:37:10.479Z,5.77
2017-12-21T05:38:20.564Z,5.74
2017-12-21T05:39:30.677Z,5.71
2017-12-21T05:40:40.814Z,5.69
2017-12-21T05:41:50.677Z,5.65
2017-12-21T05:43:00.793Z,5.69
2017-12-21T05:44:10.673Z,5.72
2017-12-21T05:45:20.413Z,5.75
2017-12-21T05:46:31.515Z,5.72
2017-12-21T05:47:42.685Z,5.69
2017-12-21T05:48:52.872Z,5.74
2017-12-21T05:50:03.063Z,5.71
2017-12-21T05:51:12.925Z,5.75
2017-12-21T05:52:22.514Z,5.72
2017-12-21T05:53:32.792Z,5.74
2017-12-21T05:54:42.984Z,5.69
2017-12-21T05:55:52.867Z,5.71
2017-12-21T05:57:02.738Z,5.75
2017-12-21T05:58:12.830Z,5.69
2017-12-21T05:59:22.476Z,5.75
2017-12-21T06:00:32.216Z,5.69
2017-12-21T06:01:41.982Z,5.75
2017-12-21T06:02:52.112Z,5.79
2017-12-21T06:04:02.362Z,5.69
2017-12-21T06:05:12.200Z,5.74
2017-12-21T06:06:21.807Z,5.68
2017-12-21T06:07:32.053Z,5.74
2017-12-21T06:08:42.268Z,5.67
2017-12-21T06:09:52.450Z,5.72
2017-12-21T06:11:02.716Z,5.77
2017-12-21T06:12:12.845Z,5.75
2017-12-21T06:13:22.596Z,5.77
2017-12-21T06:14:32.783Z,5.82
2017-12-21T06:15:42.648Z,5.8
2017-12-21T06:16:52.807Z,5.8
2017-12-21T06:18:02.425Z,5.83
2017-12-21T06:19:12.804Z,5.8
2017-12-21T06:20:22.976Z,5.77
2017-12-21T06:21:33.253Z,5.77
2017-12-21T06:22:43.476Z,5.84
2017-12-21T06:23:53.621Z,5.75
2017-12-21T06:25:03.717Z,5.74
2017-12-21T06:26:13.826Z,5.77
2017-12-21T06:27:23.435Z,5.74
2017-12-21T06:28:33.575Z,5.8
2017-12-21T06:29:43.024Z,5.74
2017-12-21T06:30:52.888Z,5.69
2017-12-21T06:32:02.378Z,5.77
2017-12-21T06:33:12.600Z,5.77
2017-12-21T06:34:22.400Z,5.69
2017-12-21T06:35:31.995Z,5.68
2017-12-21T06:36:42.188Z,5.69
2017-12-21T06:37:52.403Z,5.67
2017-12-21T06:39:02.611Z,5.74
2017-12-21T06:40:12.761Z,5.68
2017-12-21T06:41:22.613Z,5.72
2017-12-21T06:42:32.840Z,5.69
2017-12-21T06:43:42.677Z,5.68
2017-12-21T06:44:52.835Z,5.75
2017-12-21T06:46:03.054Z,5.79
2017-12-21T06:47:13.221Z,5.8
2017-12-21T06:48:23.339Z,5.8
2017-12-21T06:49:33.456Z,5.72
2017-12-21T06:50:43.050Z,5.8
2017-12-21T06:51:52.883Z,5.83
2017-12-21T06:53:02.977Z,5.86
2017-12-21T06:54:13.117Z,5.82
2017-12-21T06:55:22.872Z,5.83
2017-12-21T06:56:32.355Z,5.8
2017-12-21T06:57:42.470Z,5.8
2017-12-21T06:58:52.586Z,5.88
2017-12-21T07:00:02.766Z,5.83
2017-12-21T07:01:12.927Z,5.84
2017-12-21T07:02:22.775Z,5.83
2017-12-21T07:03:32.905Z,5.88
2017-12-21T07:04:43.043Z,5.88
2017-12-21T07:05:52.903Z,5.77
2017-12-21T07:07:03.102Z,5.88
2017-12-21T07:08:13.289Z,5.84
2017-12-21T07:09:23.162Z,5.86
2017-12-21T07:10:33.324Z,5.8
2017-12-21T07:11:43.443Z,5.82
2017-12-21T07:12:53.551Z,5.91
2017-12-21T07:14:03.408Z,5.83
2017-12-21T07:15:13.608Z,5.77
2017-12-21T07:16:23.708Z,5.74
2017-12-21T07:17:33.682Z,5.94
2017-12-21T07:18:43.900Z,5.82
2017-12-21T07:19:54.077Z,5.84
2017-12-21T07:21:04.309Z,5.9
2017-12-21T07:22:14.196Z,5.94
2017-12-21T07:23:24.332Z,5.9
2017-12-21T07:24:34.459Z,5.96
2017-12-21T07:25:43.484Z,5.9
2017-12-21T07:26:53.620Z,5.86
2017-12-21T07:28:03.755Z,5.91
2017-12-21T07:29:13.656Z,5.9
2017-12-21T07:30:23.785Z,5.84
2017-12-21T07:31:33.650Z,5.84
2017-12-21T07:32:43.508Z,5.9
2017-12-21T07:33:52.838Z,5.9
2017-12-21T07:35:03.067Z,5.9
2017-12-21T07:36:13.293Z,5.9
2017-12-21T07:37:23.135Z,5.91
2017-12-21T07:38:33.244Z,5.9
2017-12-21T07:39:43.190Z,5.94
2017-12-21T07:40:53.296Z,5.84
2017-12-21T07:42:03.144Z,5.86
2017-12-21T07:43:13.163Z,6.02
2017-12-21T07:44:23.061Z,6.01
2017-12-21T07:45:33.183Z,5.91
2017-12-21T07:46:43.030Z,5.96
2017-12-21T07:47:53.150Z,6.01
2017-12-21T07:49:03.272Z,5.99
2017-12-21T07:50:13.123Z,5.98
2017-12-21T07:51:22.635Z,6.03
2017-12-21T07:52:32.731Z,5.98
2017-12-21T07:53:42.724Z,5.99
2017-12-21T07:54:52.945Z,6.02
2017-12-21T07:56:02.282Z,5.96
2017-12-21T07:57:12.100Z,6.02
2017-12-21T07:58:22.361Z,5.96
2017-12-21T07:59:32.472Z,5.98
2017-12-21T08:00:42.592Z,5.96
2017-12-21T08:01:52.537Z,5.98
2017-12-21T08:03:02.472Z,6.03
2017-12-21T08:04:12.388Z,5.98
2017-12-21T08:05:22.482Z,5.98
2017-12-21T08:06:32.410Z,6.01
2017-12-21T08:07:42.551Z,6.02
2017-12-21T08:08:52.679Z,5.99
2017-12-21T08:10:03.761Z,5.96
2017-12-21T08:11:13.866Z,5.98
2017-12-21T08:12:24.015Z,5.99
2017-12-21T08:13:34.160Z,6.05
2017-12-21T08:14:44.013Z,6.01
2017-12-21T08:15:54.151Z,6.05
2017-12-21T08:17:04.008Z,6.02
2017-12-21T08:18:13.901Z,6.09
2017-12-21T08:19:24.007Z,5.93
2017-12-21T08:20:35.110Z,6.05
2017-12-21T08:21:44.475Z,6.06
2017-12-21T08:22:54.612Z,5.94
2017-12-21T08:24:04.792Z,5.96
2017-12-21T08:25:14.956Z,5.99
2017-12-21T08:26:24.454Z,6.09
2017-12-21T08:27:34.615Z,6.12
2017-12-21T08:28:44.521Z,6.12
2017-12-21T08:29:54.726Z,6.05
2017-12-21T08:31:04.357Z,6.08
2017-12-21T08:32:14.221Z,6.08
2017-12-21T08:33:24.366Z,6.05
2017-12-21T08:34:34.660Z,6.09
2017-12-21T08:35:44.793Z,6.05
2017-12-21T08:36:54.567Z,6.09
2017-12-21T08:38:04.783Z,6.12
2017-12-21T08:39:14.716Z,6.05
2017-12-21T08:40:24.859Z,6.11
2017-12-21T08:41:35.116Z,6.14
2017-12-21T08:42:44.721Z,6.08
2017-12-21T08:43:54.876Z,6.09
2017-12-21T08:45:05.077Z,6.11
2017-12-21T08:46:15.207Z,6.17
2017-12-21T08:47:25.238Z,6.03
2017-12-21T08:48:35.836Z,6.08
2017-12-21T08:49:45.995Z,6.11
2017-12-21T08:50:55.750Z,6.17
2017-12-21T08:52:06.087Z,6.12
2017-12-21T08:53:16.322Z,6.17
2017-12-21T08:54:26.251Z,6.14
2017-12-21T08:55:36.095Z,6.2
2017-12-21T08:56:45.979Z,6.16
2017-12-21T08:57:55.969Z,6.12
2017-12-21T08:59:06.068Z,6.2
2017-12-21T09:00:16.202Z,6.12
2017-12-21T09:01:26.324Z,6.19
2017-12-21T09:02:36.264Z,6.2
2017-12-21T09:03:46.377Z,6.26
2017-12-21T09:04:56.270Z,6.26
2017-12-21T09:06:06.383Z,6.23
2017-12-21T09:07:16.280Z,6.31
2017-12-21T09:08:26.401Z,6.3
2017-12-21T09:09:36.537Z,6.26
2017-12-21T09:10:46.131Z,6.26
2017-12-21T09:11:56.276Z,6.3
2017-12-21T09:13:06.397Z,6.24
2017-12-21T09:14:16.425Z,6.24
2017-12-21T09:15:26.542Z,6.23
2017-12-21T09:16:36.705Z,6.24
2017-12-21T09:17:46.575Z,6.28
2017-12-21T09:18:56.439Z,6.36
2017-12-21T09:20:06.213Z,6.36
2017-12-21T09:21:16.082Z,6.3
2017-12-21T09:22:26.195Z,6.34
2017-12-21T09:23:36.372Z,6.36
2017-12-21T09:24:46.515Z,6.36
2017-12-21T09:25:56.735Z,6.26
2017-12-21T09:27:06.885Z,6.31
2017-12-21T09:28:17.037Z,6.3
2017-12-21T09:29:27.200Z,6.31
2017-12-21T09:30:37.413Z,6.3
2017-12-21T09:31:47.288Z,6.41
2017-12-21T09:32:57.463Z,6.34
2017-12-21T09:34:07.644Z,6.41
2017-12-21T09:35:17.768Z,6.44
2017-12-21T09:36:27.906Z,6.3
2017-12-21T09:37:38.027Z,6.39
2017-12-21T09:38:47.916Z,6.38
2017-12-21T09:39:57.773Z,6.41
2017-12-21T09:41:08.616Z,6.45
2017-12-21T09:42:18.797Z,6.45
2017-12-21T09:43:28.588Z,6.42
2017-12-21T09:44:38.342Z,6.41
2017-12-21T09:45:48.000Z,6.45
2017-12-21T09:46:58.114Z,6.49
2017-12-21T09:48:08.026Z,6.54
2017-12-21T09:49:18.192Z,6.54
2017-12-21T09:50:27.834Z,6.41
2017-12-21T09:51:37.554Z,6.54
2017-12-21T09:52:47.070Z,6.57
2017-12-21T09:53:56.832Z,6.44
2017-12-21T09:55:06.934Z,6.46
2017-12-21T09:56:16.544Z,6.48
2017-12-21T09:57:26.853Z,6.53
2017-12-21T09:58:36.602Z,6.57
2017-12-21T09:59:46.706Z,6.52
2017-12-21T10:00:56.888Z,6.59
2017-12-21T10:02:07.119Z,6.49
2017-12-21T10:03:17.365Z,6.49
2017-12-21T10:04:27.488Z,6.54
2017-12-21T10:05:36.990Z,6.42
2017-12-21T10:06:46.895Z,6.44
2017-12-21T10:07:56.838Z,6.46
2017-12-21T10:09:07.067Z,6.59
2017-12-21T10:10:16.939Z,6.56
2017-12-21T10:11:26.739Z,6.56
2017-12-21T10:12:36.598Z,6.53
2017-12-21T10:13:46.714Z,6.49
2017-12-21T10:14:56.824Z,6.63
2017-12-21T10:16:06.953Z,6.56
2017-12-21T10:17:18.044Z,6.52
2017-12-21T10:18:28.179Z,6.63
2017-12-21T10:19:38.308Z,6.66
2017-12-21T10:20:48.335Z,6.63
2017-12-21T10:21:58.582Z,6.62
2017-12-21T10:23:08.818Z,6.54
2017-12-21T10:24:18.957Z,6.59
2017-12-21T10:25:28.820Z,6.64
2017-12-21T10:26:38.746Z,6.63
2017-12-21T10:27:48.880Z,6.59
2017-12-21T10:28:58.983Z,6.57
2017-12-21T10:30:08.596Z,6.63
2017-12-21T10:31:18.786Z,6.62
2017-12-21T10:32:28.550Z,6.54
2017-12-21T10:33:38.735Z,6.63
2017-12-21T10:34:48.678Z,6.6
2017-12-21T10:35:58.851Z,6.64
2017-12-21T10:37:08.963Z,6.59
2017-12-21T10:38:18.813Z,6.62
2017-12-21T10:39:28.769Z,6.53
2017-12-21T10:40:38.701Z,6.63
2017-12-21T10:41:48.904Z,6.66
2017-12-21T10:42:59.032Z,6.66
2017-12-21T10:44:08.887Z,6.63
2017-12-21T10:45:19.028Z,6.6
2017-12-21T10:46:28.934Z,6.66
2017-12-21T10:47:38.824Z,6.67
2017-12-21T10:48:48.818Z,6.63
2017-12-21T10:49:58.992Z,6.62
2017-12-21T10:51:09.162Z,6.63
2017-12-21T10:52:19.441Z,6.67
2017-12-21T10:53:29.611Z,6.74
2017-12-21T10:54:39.447Z,6.67
2017-12-21T10:55:49.595Z,6.62
2017-12-21T10:56:59.739Z,6.63
2017-12-21T10:58:09.885Z,6.74
2017-12-21T10:59:19.738Z,6.77
2017-12-21T11:00:30.084Z,6.78
2017-12-21T11:01:40.362Z,6.67
2017-12-21T11:02:50.521Z,6.78
2017-12-21T11:04:00.703Z,6.74
2017-12-21T11:05:10.902Z,6.74
2017-12-21T11:06:20.763Z,6.74
2017-12-21T11:07:30.912Z,6.74
2017-12-21T11:08:40.880Z,6.69
2017-12-21T11:09:51.006Z,6.75
2017-12-21T11:11:00.772Z,6.82
2017-12-21T11:12:10.952Z,6.75
2017-12-21T11:13:21.075Z,6.82
2017-12-21T11:14:31.191Z,6.74
2017-12-21T11:15:41.362Z,6.82
2017-12-21T11:16:51.307Z,6.9
2017-12-21T11:18:01.439Z,6.85
2017-12-21T11:19:11.620Z,6.89
2017-12-21T11:20:21.768Z,6.9
2017-12-21T11:21:32.029Z,6.89
2017-12-21T11:22:41.889Z,6.93
2017-12-21T11:23:51.677Z,6.9
2017-12-21T11:25:01.817Z,6.9
2017-12-21T11:26:11.738Z,6.99
2017-12-21T11:27:21.851Z,6.9
2017-12-21T11:29:03.635Z,6.9
2017-12-21T11:30:13.784Z,6.95
2017-12-21T11:31:23.647Z,7.02
2017-12-21T11:32:33.780Z,6.95
2017-12-21T11:33:43.966Z,6.99
2017-12-21T11:34:54.112Z,6.95
2017-12-21T11:36:04.017Z,6.92
2017-12-21T11:37:13.675Z,6.93
2017-12-21T11:38:23.826Z,6.9
2017-12-21T11:39:34.033Z,6.87
2017-12-21T11:40:43.919Z,6.95
2017-12-21T11:41:54.072Z,6.89
2017-12-21T11:43:03.975Z,6.95
2017-12-21T11:44:14.117Z,6.9
2017-12-21T11:45:24.256Z,6.87
2017-12-21T11:46:34.146Z,6.85
2017-12-21T11:47:44.316Z,6.85
2017-12-21T11:48:54.193Z,6.89
2017-12-21T11:50:05.299Z,6.85
2017-12-21T11:51:15.072Z,6.82
2017-12-21T11:52:25.191Z,6.81
2017-12-21T11:53:35.361Z,6.85
2017-12-21T11:54:45.264Z,6.85
2017-12-21T11:55:55.393Z,6.82
2017-12-21T11:57:05.499Z,6.77
2017-12-21T11:58:15.750Z,6.74
2017-12-21T11:59:25.611Z,6.75
2017-12-21T12:00:35.762Z,6.78
2017-12-21T12:01:45.919Z,6.75
2017-12-21T12:02:55.824Z,6.77
2017-12-21T12:04:06.037Z,6.74
2017-12-21T12:05:15.901Z,6.72
2017-12-21T12:06:26.022Z,6.81
2017-12-21T12:07:36.167Z,6.84
2017-12-21T12:08:46.298Z,6.84
2017-12-21T12:09:56.173Z,6.79
2017-12-21T12:11:06.099Z,6.77
2017-12-21T12:12:15.999Z,6.84
2017-12-21T12:13:26.198Z,6.81
2017-12-21T12:14:36.404Z,6.77
2017-12-21T12:15:46.262Z,6.72
2017-12-21T12:16:56.441Z,6.78
2017-12-21T12:18:06.567Z,6.74
2017-12-21T12:19:16.678Z,6.77
2017-12-21T12:20:26.806Z,6.69
2017-12-21T12:21:36.923Z,6.81
2017-12-21T12:22:47.130Z,6.84
2017-12-21T12:23:57.351Z,6.78
2017-12-21T12:25:07.207Z,6.74
2017-12-21T12:26:17.360Z,6.78
2017-12-21T12:27:27.477Z,6.74
2017-12-21T12:28:37.457Z,6.77
2017-12-21T12:29:47.640Z,6.85
2017-12-21T12:30:57.788Z,6.81
2017-12-21T12:32:07.911Z,6.78
2017-12-21T12:33:17.772Z,6.87
2017-12-21T12:34:27.905Z,6.87
2017-12-21T12:35:38.053Z,6.97
2017-12-21T12:36:48.194Z,6.95
2017-12-21T12:37:58.382Z,6.93
2017-12-21T12:39:08.269Z,6.96
2017-12-21T12:40:17.881Z,6.85
2017-12-21T12:41:27.744Z,7.03
2017-12-21T12:42:37.876Z,6.95
2017-12-21T12:43:47.227Z,6.96
2017-12-21T12:44:57.394Z,7.02
2017-12-21T12:46:07.259Z,6.99
2017-12-21T12:47:17.388Z,6.97
2017-12-21T12:48:28.242Z,6.96
2017-12-21T12:49:38.375Z,7.03
2017-12-21T12:50:48.286Z,7
2017-12-21T12:51:57.964Z,6.99
2017-12-21T12:53:08.095Z,7.03
2017-12-21T12:54:17.966Z,7.03
2017-12-21T12:55:28.195Z,7
2017-12-21T12:56:37.966Z,6.99
2017-12-21T12:57:48.231Z,7.03
2017-12-21T12:58:58.429Z,7.02
2017-12-21T13:00:08.549Z,7.06
2017-12-21T13:01:18.445Z,6.97
2017-12-21T13:02:28.664Z,7
2017-12-21T13:03:38.899Z,7.06
2017-12-21T13:04:49.087Z,7.06
2017-12-21T13:05:58.662Z,6.96
2017-12-21T13:07:08.782Z,7
2017-12-21T13:08:18.554Z,7.02
2017-12-21T13:09:28.676Z,7
2017-12-21T13:10:38.795Z,7.03
2017-12-21T13:11:48.913Z,7.06
2017-12-21T13:12:59.134Z,7.03
2017-12-21T13:14:09.331Z,6.96
2017-12-21T13:15:19.454Z,6.96
2017-12-21T13:16:29.637Z,6.99
2017-12-21T13:17:38.879Z,6.97
2017-12-21T13:18:48.983Z,7.02
2017-12-21T13:19:58.838Z,6.97
2017-12-21T13:21:08.732Z,7
2017-12-21T13:22:18.855Z,6.97
2017-12-21T13:23:29.013Z,6.99
2017-12-21T13:24:39.123Z,6.99
2017-12-21T13:25:49.017Z,6.97
2017-12-21T13:26:58.901Z,6.97
2017-12-21T13:28:09.040Z,6.89
2017-12-21T13:29:19.169Z,7.05
2017-12-21T13:30:29.328Z,7.05
2017-12-21T13:31:39.312Z,7.03
2017-12-21T13:32:49.203Z,6.92
2017-12-21T13:33:59.328Z,6.99
2017-12-21T13:35:09.238Z,6.97
2017-12-21T13:36:19.387Z,6.99
2017-12-21T13:37:29.580Z,6.93
2017-12-21T13:38:39.736Z,6.92
2017-12-21T13:39:49.613Z,6.95
2017-12-21T13:40:59.737Z,6.9
2017-12-21T13:42:09.902Z,6.87
2017-12-21T13:43:19.840Z,6.96
2017-12-21T13:44:29.866Z,6.9
2017-12-21T13:45:39.998Z,6.89
2017-12-21T13:46:49.899Z,6.87
2017-12-21T13:48:00.158Z,6.93
2017-12-21T13:49:10.289Z,6.9
2017-12-21T13:50:20.462Z,6.99
2017-12-21T13:51:30.591Z,6.95
2017-12-21T13:52:40.695Z,6.92
2017-12-21T13:53:51.789Z,6.96
2017-12-21T13:55:01.935Z,6.93
2017-12-21T13:56:11.726Z,6.9
2017-12-21T13:57:21.897Z,6.9
2017-12-21T13:58:32.050Z,6.92
2017-12-21T13:59:42.212Z,6.89
2017-12-21T14:00:52.172Z,6.9
2017-12-21T14:02:02.325Z,6.87
2017-12-21T14:03:12.480Z,6.99
2017-12-21T14:04:22.708Z,6.93
2017-12-21T14:05:32.309Z,6.87
2017-12-21T14:06:42.182Z,6.93
2017-12-21T14:07:52.344Z,6.93
2017-12-21T14:09:02.237Z,6.93
2017-12-21T14:10:12.121Z,6.99
2017-12-21T14:11:22.003Z,6.97
2017-12-21T14:12:32.232Z,6.96
2017-12-21T14:13:42.429Z,6.92
2017-12-21T14:14:52.636Z,6.93
2017-12-21T14:16:02.954Z,6.9
2017-12-21T14:17:13.158Z,6.93
2017-12-21T14:18:23.359Z,6.92
2017-12-21T14:19:33.559Z,6.9
2017-12-21T14:20:43.843Z,6.9
2017-12-21T14:21:54.001Z,6.87
2017-12-21T14:23:05.204Z,6.92
2017-12-21T14:24:15.434Z,6.96
2017-12-21T14:25:25.667Z,6.84
2017-12-21T14:26:35.800Z,6.93
2017-12-21T14:27:45.944Z,6.92
2017-12-21T14:28:55.931Z,6.84
2017-12-21T14:30:06.083Z,6.89
2017-12-21T14:31:16.255Z,6.84
2017-12-21T14:32:26.422Z,6.87
2017-12-21T14:33:36.565Z,6.81
2017-12-21T14:34:46.693Z,6.78
2017-12-21T14:35:56.816Z,6.78
2017-12-21T14:37:06.743Z,6.84
2017-12-21T14:38:16.888Z,6.81
2017-12-21T14:39:26.738Z,6.75
2017-12-21T14:40:36.873Z,6.78
2017-12-21T14:41:46.641Z,6.75
2017-12-21T14:42:56.787Z,6.77
2017-12-21T14:44:06.647Z,6.75
2017-12-21T14:45:16.794Z,6.75
2017-12-21T14:46:27.089Z,6.72
2017-12-21T14:47:36.993Z,6.63
2017-12-21T14:48:46.862Z,6.62
2017-12-21T14:49:56.494Z,6.67
2017-12-21T14:51:06.629Z,6.67
2017-12-21T14:52:17.011Z,6.64
2017-12-21T14:53:27.148Z,6.64
2017-12-21T14:54:37.316Z,6.62
2017-12-21T14:55:47.295Z,6.6
2017-12-21T14:56:57.428Z,6.71
2017-12-21T14:58:07.550Z,6.67
2017-12-21T14:59:17.777Z,6.67
2017-12-21T15:00:27.926Z,6.62
2017-12-21T15:01:38.183Z,6.66
2017-12-21T15:02:48.369Z,6.57
2017-12-21T15:03:58.588Z,6.59
2017-12-21T15:05:08.733Z,6.57
2017-12-21T15:06:18.909Z,6.46
2017-12-21T15:07:29.076Z,6.44
2017-12-21T15:08:39.224Z,6.53
2017-12-21T15:09:48.802Z,6.44
2017-12-21T15:10:58.937Z,6.46
2017-12-21T15:12:08.831Z,6.44
2017-12-21T15:13:18.993Z,6.56
2017-12-21T15:14:28.654Z,6.54
2017-12-21T15:15:38.522Z,6.48
2017-12-21T15:16:48.398Z,6.53
2017-12-21T15:17:58.503Z,6.52
2017-12-21T15:19:08.644Z,6.49
2017-12-21T15:20:18.776Z,6.46
2017-12-21T15:21:28.899Z,6.45
2017-12-21T15:22:39.035Z,6.44
2017-12-21T15:23:49.055Z,6.45
2017-12-21T15:24:58.951Z,6.39
2017-12-21T15:26:08.723Z,6.44
2017-12-21T15:27:18.566Z,6.44
2017-12-21T15:28:28.478Z,6.44
2017-12-21T15:29:38.382Z,6.41
2017-12-21T15:30:48.141Z,6.42
2017-12-21T15:31:58.251Z,6.44
2017-12-21T15:33:08.371Z,6.39
2017-12-21T15:34:18.522Z,6.41
2017-12-21T15:35:28.389Z,6.44
2017-12-21T15:36:38.283Z,6.42